LLIB/RPN METAR and TAF weather

Enter ICAO airport designator
Station Type Date Time Source
LLIB METAR 2023/02/05 15:50 UTC NOAA

LLIB 051550Z AUTO 21007KT 180V240 9999 SCT033 12/08 Q1009 RMK BKN060


Station Type Date Time Source
LLIB Decoded METAR 2023/02/05 15:50 UTC NOAA

Galilee / Pina, Israel (LLIB) 32-58-48N 035-34-12E
Feb 05, 2023 - 10:50 AM EST / 2023.02.05 1550 UTC
Wind: from the SSW (210 degrees) at 8 MPH (7 KT) (direction variable):0
Visibility: greater than 7 mile(s):0
Sky conditions: partly cloudy
Temperature: 53 F (12 C)
Dew Point: 46 F (8 C)
Relative Humidity: 76%
Pressure (altimeter): 29.80 in. Hg (1009 hPa)
ob: LLIB 051550Z AUTO 21007KT 180V240 9999 SCT033 12/08 Q1009 RMK BKN060
cycle: 16

Station Type Date Time Source
LLIB TAF 2023/02/05 12:24 UTC NOAA

TAF
AMD TAF
AMD LLIB 051622Z 0512/0612 CNL

Example: see airport list